SNOW

Not for real navigation. The accuracy of this data is not assured See disclaimer for more information



ICAO NAME COUNTRY WIND Kt GUST Kt VIS m TEMP/DEW C BARO METAR
UHWW Vladivostok Russia 7 0 300 -4/-4 29.59 UHWW 172300Z 34007KT 0300 0250W R25L/0400N +SHSN VV007 M04/M04 Q1002 R25L/690825 TEMPO 0400 +SHSN BL
UHBB 5 0 350 -13/-14 29.68 UHBB 172300Z 36005KT 0350 0300S R36/0325N +SN DRSN VV003 M13/M14 Q1005 R36/493535 NOSIG RMK QBB090 Q
KMDZ Medford, Taylor County Airport WI United States 3 0 400 0/0 29.79 KMDZ 172315Z AUTO 26003KT 0.25SM -SN OVC002 00/00 A2979 RMK AO2 T10031005
OIFM Esfahan Iran 0 0 800 0/0 30.20 OIFM 172300Z 00000KT 0800 R25/1800D -SN FG SCT035 OVC090 00/M00 Q1022 A3020
CYKO Akulivik Airport Canada 17 0 1200 -4/-6 29.51 CYKO 172200Z CCA 30017KT 0.75SM -SHSN BLSN OVC009 M04/M06 A2951 RMK SN7SC1 SN CVR MUCH LOOSE LAST ST

Show more